Time;durP1;ratioP1;P1;durP2;ratioP2;P2;SDS_P1;SDS_P2;PMS_P1;PMS_P2;Temp;Humidity;BMP_temperature;BMP_pressure;BME280_temperature;BME280_humidity;BME280_pressure;Samples;Min_cycle;Max_cycle;Signal;HPM_P1;HPM_P2
2023/07/15 00:00:52;;;;;;;7.60;3.42;;;;;;;-146.27;64.76;80757.38;5060786;28;20115;-72
2023/07/15 00:03:21;;;;;;;6.45;3.35;;;;;;;-146.27;65.55;80737.31;5059791;28;20491;-71
2023/07/15 00:05:49;;;;;;;7.32;3.25;;;;;;;-146.27;65.48;80761.41;5063947;28;20326;-73
2023/07/15 00:08:14;;;;;;;6.57;3.67;;;;;;;-146.27;65.87;80745.34;5066785;28;20031;-72
2023/07/15 00:10:43;;;;;;;7.53;3.03;;;;;;;-146.27;65.12;80753.38;5073743;28;20376;-72
2023/07/15 00:13:13;;;;;;;6.75;3.28;;;;;;;-146.27;63.93;80733.28;5072554;28;20036;-73
2023/07/15 00:15:40;;;;;;;6.15;3.00;;;;;;;-146.27;63.99;80747.34;5064193;28;20029;-73
2023/07/15 00:18:06;;;;;;;5.93;3.20;;;;;;;-146.27;64.30;80751.38;5053364;28;20064;-72
2023/07/15 00:20:32;;;;;;;7.43;3.15;;;;;;;-146.27;64.23;80745.34;5081630;28;20563;-72
2023/07/15 00:22:57;;;;;;;8.70;3.00;;;;;;;-146.27;64.26;80753.38;5064071;28;20036;-73
2023/07/15 00:25:24;;;;;;;12.68;3.28;;;;;;;-146.27;63.92;80769.44;5072410;28;20379;-72
2023/07/15 00:27:49;;;;;;;6.68;3.38;;;;;;;-146.27;64.11;80723.25;5087973;28;20032;-73
2023/07/15 00:30:17;;;;;;;5.78;2.92;;;;;;;-146.27;63.23;80733.28;5088813;28;20391;-72
2023/07/15 00:32:45;;;;;;;5.53;3.00;;;;;;;-146.27;63.81;80745.34;5075512;28;20078;-73
2023/07/15 00:35:20;;;;;;;6.25;2.80;;;;;;;-146.27;64.01;80737.31;5066240;28;20032;-73
2023/07/15 00:37:47;;;;;;;8.15;3.30;;;;;;;-146.27;63.58;80741.31;5056856;28;20036;-73
2023/07/15 00:40:12;;;;;;;5.72;2.78;;;;;;;-146.27;63.39;80733.28;5075201;28;20024;-72
2023/07/15 00:43:00;;;;;;;4.82;2.58;;;;;;;-146.27;62.25;80747.34;5068790;28;20074;-72
2023/07/15 00:45:25;;;;;;;10.88;2.75;;;;;;;-146.27;62.66;80749.34;5062657;28;20089;-71
2023/07/15 00:48:03;;;;;;;9.65;3.08;;;;;;;-146.27;62.16;80761.41;5052722;28;20036;-73
2023/07/15 00:50:28;;;;;;;7.35;3.28;;;;;;;-146.27;62.44;80753.38;5057942;28;20028;-72
2023/07/15 00:52:53;;;;;;;5.03;2.75;;;;;;;-146.27;61.68;80777.47;5071296;28;20025;-72
2023/07/15 00:55:19;;;;;;;5.82;2.83;;;;;;;-146.27;61.97;80757.38;5073981;28;20415;-73
2023/07/15 00:57:44;;;;;;;4.93;2.60;;;;;;;-146.27;62.48;80745.34;5066647;28;20025;-73
2023/07/15 01:00:11;;;;;;;5.22;2.90;;;;;;;-146.27;62.51;80761.41;5069515;28;20031;-72
2023/07/15 01:02:37;;;;;;;7.13;2.97;;;;;;;-146.27;63.01;80657.00;5086324;28;20038;-72
2023/07/15 01:05:04;;;;;;;4.57;2.47;;;;;;;-146.27;63.59;80717.22;5062615;28;20029;-73
2023/07/15 01:07:30;;;;;;;4.47;2.72;;;;;;;-146.27;63.98;80749.34;5066172;28;20506;-72
2023/07/15 01:09:55;;;;;;;8.00;2.80;;;;;;;-146.27;64.00;80697.16;5060922;28;20017;-72
2023/07/15 01:12:21;;;;;;;6.32;2.30;;;;;;;-146.27;65.10;80711.19;5075975;28;20127;-72
2023/07/15 01:14:49;;;;;;;6.07;2.70;;;;;;;-146.27;64.98;80709.19;5056952;28;20443;-72
2023/07/15 01:17:14;;;;;;;5.50;2.80;;;;;;;-146.27;65.79;80757.38;5068475;28;20068;-71
2023/07/15 01:19:40;;;;;;;8.10;2.75;;;;;;;-146.27;67.03;80809.59;5078157;28;20055;-72
2023/07/15 01:22:07;;;;;;;8.77;2.63;;;;;;;-146.27;66.93;80835.69;5071493;28;20081;-72
2023/07/15 01:24:34;;;;;;;8.43;2.65;;;;;;;-146.27;66.92;80861.81;5074938;28;20403;-72
2023/07/15 01:27:02;;;;;;;5.45;2.15;;;;;;;-146.27;67.66;80845.75;5071491;28;20037;-72
2023/07/15 01:29:28;;;;;;;5.80;2.92;;;;;;;-146.27;67.57;80849.75;5065857;28;20028;-72
2023/07/15 01:31:53;;;;;;;7.50;2.25;;;;;;;-146.27;68.12;80916.03;5073433;28;20435;-72
2023/07/15 01:34:21;;;;;;;11.15;2.20;;;;;;;-146.27;68.38;80885.91;5064523;28;20059;-72
2023/07/15 01:36:48;;;;;;;4.75;2.30;;;;;;;-146.27;68.72;80843.72;5074503;28;20106;-72
2023/07/15 01:39:13;;;;;;;8.80;2.22;;;;;;;-146.27;69.04;80903.97;5068518;28;20050;-72
2023/07/15 01:41:38;;;;;;;5.85;2.17;;;;;;;-146.27;69.57;80893.94;5082605;28;20446;-71
2023/07/15 01:44:04;;;;;;;5.03;2.22;;;;;;;-146.27;69.42;80893.94;5066969;28;20490;-71
2023/07/15 01:46:33;;;;;;;7.20;2.25;;;;;;;-146.27;69.70;80934.09;5079700;28;20032;-71
2023/07/15 01:49:02;;;;;;;6.00;2.13;;;;;;;-146.27;70.23;80901.97;5076029;28;20028;-71
2023/07/15 01:51:28;;;;;;;8.35;1.95;;;;;;;-146.27;70.08;80922.03;5067431;28;20024;-72
2023/07/15 01:53:53;;;;;;;6.40;2.00;;;;;;;-146.27;70.29;80893.94;5060556;28;20424;-71
2023/07/15 01:56:19;;;;;;;9.30;2.17;;;;;;;-146.27;70.94;80914.00;5066298;28;20020;-71
2023/07/15 01:58:44;;;;;;;4.45;2.03;;;;;;;-146.27;71.50;80883.88;5053318;28;20059;-72
2023/07/15 02:01:10;;;;;;;4.82;2.03;;;;;;;-146.27;71.69;80835.69;5073038;28;20028;-72
2023/07/15 02:03:35;;;;;;;3.47;1.55;;;;;;;-146.27;72.06;80865.81;5070833;28;20440;-71
2023/07/15 02:06:00;;;;;;;3.63;1.80;;;;;;;-146.27;72.51;80833.69;5080379;28;20024;-71
2023/07/15 02:08:26;;;;;;;7.53;2.17;;;;;;;-146.27;72.83;80847.75;5080415;28;20024;-74
2023/07/15 02:10:52;;;;;;;4.93;1.60;;;;;;;-146.27;73.55;80891.94;5086139;28;20477;-72
2023/07/15 02:13:17;;;;;;;3.20;1.92;;;;;;;-146.27;73.77;80845.75;5083187;28;20085;-73
2023/07/15 02:15:43;;;;;;;4.65;1.90;;;;;;;-146.27;74.27;80885.91;5062483;28;20028;-73
2023/07/15 02:18:09;;;;;;;3.53;1.90;;;;;;;-146.27;74.45;80839.72;5082637;28;20028;-73
2023/07/15 02:20:34;;;;;;;5.05;2.00;;;;;;;-146.27;74.69;80841.72;5069619;28;20464;-73
2023/07/15 02:22:59;;;;;;;4.80;1.70;;;;;;;-146.27;74.90;80885.91;5069916;28;20031;-73
2023/07/15 02:25:25;;;;;;;2.83;1.67;;;;;;;-146.27;74.98;80863.81;5066917;28;20032;-73
2023/07/15 02:27:50;;;;;;;3.97;2.00;;;;;;;-146.27;75.37;80883.88;5061306;28;20151;-72
2023/07/15 02:30:16;;;;;;;5.15;1.55;;;;;;;-146.27;75.14;80849.75;5063178;28;20391;-73
2023/07/15 02:32:42;;;;;;;5.07;2.10;;;;;;;-146.27;75.47;80889.91;5071774;28;20104;-73
2023/07/15 02:35:10;;;;;;;5.25;2.42;;;;;;;-146.27;75.97;80938.09;5067443;28;23073;-73
2023/07/15 02:37:36;;;;;;;3.80;2.00;;;;;;;-146.27;76.16;80905.97;5066317;28;20055;-73
2023/07/15 02:40:06;;;;;;;2.75;1.70;;;;;;;-146.27;77.34;80966.22;5065507;28;20020;-73
2023/07/15 02:42:33;;;;;;;2.08;1.70;;;;;;;-146.27;77.35;80934.09;5080948;28;20039;-73
2023/07/15 02:45:03;;;;;;;5.20;1.83;;;;;;;-146.27;77.51;80950.16;5082016;28;20035;-73
2023/07/15 02:47:30;;;;;;;4.85;1.92;;;;;;;-146.27;77.49;80938.09;5078580;28;20028;-73
2023/07/15 02:49:56;;;;;;;3.72;1.80;;;;;;;-146.27;77.97;80930.06;5080903;28;20384;-73
2023/07/15 02:52:23;;;;;;;4.90;1.80;;;;;;;-146.27;78.10;80914.00;5068647;28;20028;-73
2023/07/15 02:54:48;;;;;;;2.97;1.67;;;;;;;-146.27;78.64;80946.13;5085458;28;20028;-73
2023/07/15 02:57:14;;;;;;;3.60;1.77;;;;;;;-146.27;78.43;80863.81;5070531;28;20023;-73
2023/07/15 02:59:39;;;;;;;4.05;1.83;;;;;;;-146.27;78.29;80849.75;5084667;28;20031;-73
2023/07/15 03:02:04;;;;;;;4.07;1.70;;;;;;;-146.27;78.66;80895.94;5082340;28;20027;-73
2023/07/15 03:04:30;;;;;;;4.50;2.30;;;;;;;-146.27;79.48;80918.03;5069378;28;20477;-73
2023/07/15 03:06:58;;;;;;;4.95;1.70;;;;;;;-146.27;79.78;80916.03;5071985;28;20024;-73
2023/07/15 03:09:25;;;;;;;6.43;1.92;;;;;;;-146.27;80.56;80976.25;5070148;28;20472;-73
2023/07/15 03:11:50;;;;;;;3.03;2.20;;;;;;;-146.27;80.33;80952.16;5064140;28;20047;-73
2023/07/15 03:14:16;;;;;;;3.60;1.63;;;;;;;-146.27;79.93;80920.03;5065016;28;20032;-73
2023/07/15 03:16:41;;;;;;;4.35;1.95;;;;;;;-146.27;80.40;80974.25;5066639;28;20024;-73
2023/07/15 03:19:06;;;;;;;4.38;2.10;;;;;;;-146.27;80.29;80962.22;5057693;28;20123;-74
2023/07/15 03:21:32;;;;;;;4.63;2.00;;;;;;;-146.27;80.56;80960.19;5055868;28;20488;-73
2023/07/15 03:23:57;;;;;;;4.47;2.10;;;;;;;-146.27;80.02;80934.09;5053884;28;20036;-73
2023/07/15 03:26:22;;;;;;;3.80;2.13;;;;;;;-146.27;80.45;80958.19;5073852;28;20038;-73
2023/07/15 03:28:48;;;;;;;6.05;2.65;;;;;;;-146.27;80.21;80930.06;5078219;28;20032;-71
2023/07/15 03:31:13;;;;;;;4.03;2.20;;;;;;;-146.27;80.18;80865.81;5069698;28;20076;-71
2023/07/15 03:33:39;;;;;;;3.50;2.17;;;;;;;-146.27;80.04;80897.94;5069142;28;20016;-73
2023/07/15 03:36:04;;;;;;;7.63;2.30;;;;;;;-146.27;80.25;80936.09;5083624;28;20042;-73
2023/07/15 03:38:30;;;;;;;6.07;2.00;;;;;;;-146.27;79.96;80932.09;5062707;28;20350;-73
2023/07/15 03:40:55;;;;;;;7.55;3.35;;;;;;;-146.27;79.99;80930.06;5064534;28;20159;-72
2023/07/15 03:43:21;;;;;;;5.80;2.10;;;;;;;-146.27;80.19;80942.13;5083126;28;20402;-72
2023/07/15 03:45:46;;;;;;;3.60;2.33;;;;;;;-146.27;80.42;80958.19;5082005;28;20495;-73
2023/07/15 03:48:12;;;;;;;4.85;2.25;;;;;;;-146.27;80.65;80986.31;5073674;28;20387;-72
2023/07/15 03:50:37;;;;;;;7.85;2.22;;;;;;;-146.27;80.45;80970.25;5075672;28;20033;-72
2023/07/15 03:53:03;;;;;;;6.32;2.50;;;;;;;-146.27;81.02;81024.47;5064878;28;20047;-72
2023/07/15 03:55:29;;;;;;;4.30;1.95;;;;;;;-146.27;80.95;80982.28;5085067;28;20419;-72
2023/07/15 03:57:55;;;;;;;8.02;2.17;;;;;;;-146.27;80.80;80974.25;5075705;28;20038;-72
2023/07/15 04:00:21;;;;;;;3.80;1.83;;;;;;;-146.27;80.85;80958.19;5073904;28;20145;-72
2023/07/15 04:02:49;;;;;;;5.07;1.75;;;;;;;-146.27;80.62;80964.22;5052585;28;20582;-71
2023/07/15 04:05:15;;;;;;;2.83;1.73;;;;;;;-146.27;80.94;81010.41;5072710;28;20024;-73
2023/07/15 04:07:40;;;;;;;3.88;2.03;;;;;;;-146.27;80.86;80968.22;5067999;28;20027;-73
2023/07/15 04:10:06;;;;;;;4.15;1.88;;;;;;;-146.27;80.86;80974.25;5070831;28;20050;-73
2023/07/15 04:12:32;;;;;;;6.68;1.85;;;;;;;-146.27;80.76;80940.13;5064702;28;20127;-73
2023/07/15 04:14:57;;;;;;;5.22;1.90;;;;;;;-146.27;81.89;80998.34;5064288;28;20035;-72
2023/07/15 04:17:23;;;;;;;6.97;1.95;;;;;;;-146.27;81.71;80982.28;5048675;28;20080;-72
2023/07/15 04:19:48;;;;;;;4.78;1.73;;;;;;;-146.27;82.47;81038.50;5052943;28;20021;-73
2023/07/15 04:22:13;;;;;;;4.70;1.73;;;;;;;-146.27;82.41;80976.25;5066166;28;20115;-71
2023/07/15 04:24:39;;;;;;;3.60;1.85;;;;;;;-146.27;81.97;80988.31;5057095;28;20056;-72
2023/07/15 04:27:04;;;;;;;5.47;1.50;;;;;;;-146.27;81.93;81038.50;5069642;28;20343;-72
2023/07/15 04:29:31;;;;;;;4.70;1.50;;;;;;;-146.27;80.94;81078.69;5068432;28;20396;-71
2023/07/15 04:31:56;;;;;;;6.70;1.67;;;;;;;-146.27;80.97;81064.63;5065899;28;20028;-73
2023/07/15 04:34:22;;;;;;;8.02;1.55;;;;;;;-146.27;80.02;81014.41;5057512;28;20056;-72
2023/07/15 04:36:47;;;;;;;3.80;1.50;;;;;;;-146.27;80.05;80994.34;5055244;28;20115;-72
2023/07/15 04:39:12;;;;;;;2.38;1.15;;;;;;;-146.27;79.53;81030.47;5074320;28;20051;-72
2023/07/15 04:41:38;;;;;;;5.80;1.42;;;;;;;-146.27;79.65;81060.59;5068018;28;20484;-72
2023/07/15 04:44:03;;;;;;;4.75;1.35;;;;;;;-146.27;79.88;81066.63;5065507;28;20177;-72
2023/07/15 04:46:30;;;;;;;4.35;1.20;;;;;;;-146.27;79.61;81070.66;5080234;28;20016;-71
2023/07/15 04:48:55;;;;;;;2.17;1.00;;;;;;;-146.27;79.96;81114.81;5061862;28;20128;-72
2023/07/15 04:51:21;;;;;;;3.95;1.55;;;;;;;-146.27;78.88;81102.78;5068681;28;20103;-72
2023/07/15 04:53:46;;;;;;;5.25;1.50;;;;;;;-146.27;78.86;81138.91;5071031;28;20049;-72
2023/07/15 04:56:11;;;;;;;6.72;1.25;;;;;;;-146.27;78.78;81128.88;5072006;28;20043;-73
2023/07/15 04:58:38;;;;;;;5.80;1.73;;;;;;;-146.27;77.76;81136.91;5089014;28;20032;-72
2023/07/15 05:01:03;;;;;;;3.80;1.20;;;;;;;-146.27;77.77;81203.19;5071138;28;20024;-74
2023/07/15 05:03:29;;;;;;;5.00;1.20;;;;;;;-146.27;77.41;81167.03;5057726;28;20674;-74
2023/07/15 05:05:55;;;;;;;5.32;1.10;;;;;;;-146.27;76.93;81167.03;5060427;28;20020;-71
2023/07/15 05:08:23;;;;;;;5.82;1.52;;;;;;;-146.27;77.41;81134.91;5072561;28;20027;-72
2023/07/15 05:10:49;;;;;;;4.30;1.23;;;;;;;-146.27;78.15;81191.13;5062607;28;20040;-72
2023/07/15 05:13:15;;;;;;;8.65;1.25;;;;;;;-146.27;78.20;81187.13;5060214;28;20379;-72
2023/07/15 05:15:41;;;;;;;5.60;1.60;;;;;;;-146.27;78.96;81191.13;5080530;28;20434;-72
2023/07/15 05:18:08;;;;;;;4.70;1.52;;;;;;;-146.27;79.07;81187.13;5060550;28;20028;-72
2023/07/15 05:20:34;;;;;;;6.13;1.30;;;;;;;-146.27;79.20;81175.06;5060049;28;20103;-73
2023/07/15 05:23:01;;;;;;;7.03;1.70;;;;;;;-146.27;79.47;81203.19;5057610;28;20143;-73
2023/07/15 05:25:26;;;;;;;5.20;1.33;;;;;;;-146.27;79.23;81185.13;5066382;28;20153;-73
2023/07/15 05:27:52;;;;;;;4.85;1.23;;;;;;;-146.27;78.77;81215.22;5052260;28;20037;-72
2023/07/15 05:30:19;;;;;;;5.82;1.75;;;;;;;-146.27;78.13;81163.03;5070175;28;20123;-72
2023/07/15 05:32:44;;;;;;;5.38;1.40;;;;;;;-146.27;76.93;81211.22;5070153;28;20035;-73
2023/07/15 05:35:10;;;;;;;7.90;2.00;;;;;;;-146.27;76.46;81130.88;5065176;28;20040;-73
2023/07/15 05:37:35;;;;;;;6.18;1.50;;;;;;;-146.27;76.52;81195.16;5063338;28;20040;-72
2023/07/15 05:40:01;;;;;;;4.47;1.70;;;;;;;-146.27;76.36;81163.03;5059870;28;20062;-73
2023/07/15 05:42:26;;;;;;;7.68;1.50;;;;;;;-146.27;76.55;81197.16;5078582;28;20082;-72
2023/07/15 05:44:51;;;;;;;6.70;1.70;;;;;;;-146.27;76.41;81179.09;5066124;28;20472;-73
2023/07/15 05:47:17;;;;;;;7.70;1.60;;;;;;;-146.27;76.46;81183.09;5088986;28;20054;-73
2023/07/15 05:49:42;;;;;;;6.53;2.65;;;;;;;-146.27;76.14;81195.16;5080042;28;20069;-73
2023/07/15 05:52:08;;;;;;;6.53;1.60;;;;;;;-146.27;74.59;81223.25;5095475;28;20105;-73
2023/07/15 05:54:33;;;;;;;3.95;1.67;;;;;;;-146.27;74.14;81203.19;5068921;28;20024;-72
2023/07/15 05:56:58;;;;;;;5.13;1.52;;;;;;;-146.27;73.14;81207.19;5079631;28;20028;-72
2023/07/15 05:59:24;;;;;;;5.60;1.52;;;;;;;-146.27;73.25;81207.19;5062675;28;20082;-73
2023/07/15 06:01:49;;;;;;;6.85;1.90;;;;;;;-146.27;72.55;81265.44;5054962;28;20055;-73
2023/07/15 06:04:15;;;;;;;4.45;1.42;;;;;;;-146.27;72.26;81219.25;5056214;28;20062;-72
2023/07/15 06:06:40;;;;;;;7.10;2.45;;;;;;;-146.27;72.41;81183.09;5078488;28;20024;-72
2023/07/15 06:09:06;;;;;;;7.35;1.83;;;;;;;-146.27;72.98;81275.47;5070971;28;20393;-73
2023/07/15 06:11:34;;;;;;;9.98;1.60;;;;;;;-146.27;72.87;81201.19;5069182;28;20052;-73
2023/07/15 06:14:03;;;;;;;4.28;1.67;;;;;;;-146.27;72.74;81267.44;5062297;28;20021;-72
2023/07/15 06:16:29;;;;;;;4.88;1.70;;;;;;;-146.27;73.37;81251.38;5068796;28;20033;-72
2023/07/15 06:18:54;;;;;;;7.60;1.70;;;;;;;-146.27;73.29;81263.44;5066297;28;20046;-73
2023/07/15 06:21:19;;;;;;;5.95;1.85;;;;;;;-146.27;73.45;81231.31;5060966;28;20028;-72
2023/07/15 06:23:45;;;;;;;6.40;1.65;;;;;;;-146.27;73.65;81251.38;5069761;28;20024;-73
2023/07/15 06:26:10;;;;;;;4.45;1.48;;;;;;;-146.27;73.67;81181.09;5073386;28;20119;-73
2023/07/15 06:28:36;;;;;;;5.72;2.83;;;;;;;-146.27;73.56;81169.03;5051423;28;20029;-71
2023/07/15 06:31:08;;;;;;;5.80;1.70;;;;;;;-146.27;73.40;81108.81;5064308;28;20096;-71
2023/07/15 06:33:34;;;;;;;5.95;1.88;;;;;;;-146.27;73.43;81088.72;5071459;28;20021;-71
2023/07/15 06:36:00;;;;;;;5.80;1.50;;;;;;;-146.27;73.00;81142.94;5071059;28;20036;-71
2023/07/15 06:38:27;;;;;;;5.40;1.52;;;;;;;-146.27;73.18;81078.69;5069441;28;20408;-67
2023/07/15 06:40:53;;;;;;;3.80;1.73;;;;;;;-146.27;73.50;81002.38;5056357;28;20027;-68
2023/07/15 06:43:18;;;;;;;3.67;1.50;;;;;;;-146.27;72.71;81050.56;5063936;28;20024;-67
2023/07/15 06:45:44;;;;;;;4.97;1.60;;;;;;;-146.27;73.29;81032.50;5068737;28;20468;-67
2023/07/15 06:48:09;;;;;;;5.00;1.65;;;;;;;-146.27;72.90;81000.34;5066301;28;20153;-67
2023/07/15 06:50:36;;;;;;;8.40;1.60;;;;;;;-146.27;72.68;80972.25;5072720;28;20027;-66
2023/07/15 06:53:02;;;;;;;7.57;1.98;;;;;;;-146.27;72.58;80978.28;5073378;28;20023;-67
2023/07/15 06:55:27;;;;;;;4.53;1.60;;;;;;;-146.27;72.30;81024.47;5066282;28;20063;-67
2023/07/15 06:57:53;;;;;;;4.53;1.30;;;;;;;-146.27;70.33;80932.09;5066767;28;20070;-66
2023/07/15 07:00:18;;;;;;;7.00;1.58;;;;;;;-146.27;69.35;81030.47;5070532;28;20023;-66
2023/07/15 07:02:45;;;;;;;6.45;1.75;;;;;;;-146.27;67.91;81062.59;5072218;28;20059;-66
2023/07/15 07:05:10;;;;;;;3.55;1.45;;;;;;;-146.27;68.27;80996.34;5069481;28;20028;-67
2023/07/15 07:07:35;;;;;;;5.35;1.80;;;;;;;-146.27;67.84;80962.22;5073703;28;20058;-67
2023/07/15 07:10:01;;;;;;;5.93;1.33;;;;;;;-146.27;68.83;80914.00;5072107;28;20028;-67
2023/07/15 07:12:27;;;;;;;3.88;1.50;;;;;;;-146.27;69.29;80950.16;5068070;28;20118;-69
2023/07/15 07:14:52;;;;;;;5.93;1.73;;;;;;;-146.27;68.88;80970.25;5066895;28;20055;-69
2023/07/15 07:17:17;;;;;;;3.38;1.40;;;;;;;-146.27;68.99;80948.16;5068315;28;20036;-68
2023/07/15 07:19:45;;;;;;;4.35;1.83;;;;;;;-146.27;69.21;80938.09;5068664;28;20024;-67
2023/07/15 07:22:11;;;;;;;3.90;1.40;;;;;;;-146.27;69.24;80901.97;5068956;28;20039;-69
2023/07/15 07:24:36;;;;;;;4.85;1.42;;;;;;;-146.27;69.74;80895.94;5067110;28;20025;-67
2023/07/15 07:27:02;;;;;;;3.90;1.30;;;;;;;-146.27;69.80;80839.72;5066786;28;20044;-66
2023/07/15 07:29:27;;;;;;;4.88;1.38;;;;;;;-146.27;70.32;80797.53;5058409;28;20029;-67
2023/07/15 07:31:53;;;;;;;2.08;1.05;;;;;;;-146.27;68.97;80757.38;5081693;28;20103;-67
2023/07/15 07:34:18;;;;;;;4.68;1.10;;;;;;;-146.27;68.59;80829.69;5075030;28;20032;-68
2023/07/15 07:36:44;;;;;;;3.85;1.25;;;;;;;-146.27;68.28;80769.44;5079635;28;20028;-71
2023/07/15 07:39:10;;;;;;;1.77;1.02;;;;;;;-146.27;67.44;80801.56;5069260;28;20095;-72
2023/07/15 07:41:36;;;;;;;4.03;1.10;;;;;;;-146.27;66.95;80769.44;5075203;28;20028;-68
2023/07/15 07:44:01;;;;;;;3.28;1.10;;;;;;;-146.27;65.43;80779.47;5073819;28;20487;-70
2023/07/15 07:46:26;;;;;;;5.38;1.27;;;;;;;-146.27;66.65;80737.31;5073286;28;20032;-70
2023/07/15 07:48:52;;;;;;;3.65;1.23;;;;;;;-146.27;66.47;80695.13;5084422;28;20028;-68
2023/07/15 07:51:17;;;;;;;4.72;1.60;;;;;;;-146.27;64.47;80705.19;5070733;28;20131;-73
2023/07/15 07:53:43;;;;;;;3.78;1.20;;;;;;;-146.27;64.05;80642.94;5065891;28;20020;-70
2023/07/15 07:56:11;;;;;;;5.07;1.35;;;;;;;-146.27;61.51;80685.09;5057533;28;20517;-71
2023/07/15 07:58:39;;;;;;;4.53;1.23;;;;;;;-146.27;59.85;80697.16;5069034;28;20031;-72
2023/07/15 08:01:05;;;;;;;2.42;1.20;;;;;;;-146.27;59.11;80628.88;5064611;28;20129;-72
2023/07/15 08:03:30;;;;;;;4.20;1.27;;;;;;;-146.27;55.89;80675.06;5088797;28;20138;-73
2023/07/15 08:05:57;;;;;;;7.45;1.50;;;;;;;-146.27;56.96;80677.06;5075670;28;20016;-71
2023/07/15 08:08:23;;;;;;;3.88;1.35;;;;;;;-146.27;55.26;80602.78;5062467;28;20163;-71
2023/07/15 08:10:49;;;;;;;4.10;1.20;;;;;;;-146.27;53.58;80681.09;5067175;28;20466;-72
2023/07/15 08:13:14;;;;;;;3.50;1.50;;;;;;;-146.27;54.10;80673.06;5071155;28;20036;-72
2023/07/15 08:15:39;;;;;;;2.78;1.25;;;;;;;-146.27;54.78;80657.00;5065196;28;20028;-72
2023/07/15 08:18:06;;;;;;;4.38;1.27;;;;;;;-146.27;54.89;80665.03;5079865;28;20021;-73
2023/07/15 08:20:32;;;;;;;1.75;1.25;;;;;;;-146.27;56.44;80671.03;5070314;28;20634;-72
2023/07/15 08:22:58;;;;;;;2.60;1.00;;;;;;;-146.27;55.56;80608.78;5070665;28;20028;-72
2023/07/15 08:25:24;;;;;;;5.38;1.27;;;;;;;-146.27;56.52;80512.41;5070731;28;20043;-72
2023/07/15 08:27:49;;;;;;;3.03;1.00;;;;;;;-146.27;56.91;80472.25;5074086;28;20103;-72
2023/07/15 08:30:15;;;;;;;3.67;1.40;;;;;;;-146.27;56.71;80500.38;5068967;28;20033;-72
2023/07/15 08:32:40;;;;;;;1.95;0.90;;;;;;;-146.27;57.78;80452.19;5072246;28;20037;-70
2023/07/15 08:35:06;;;;;;;1.60;1.00;;;;;;;-146.27;57.85;80528.47;5069147;28;20166;-72
2023/07/15 08:37:32;;;;;;;1.45;0.82;;;;;;;-146.27;57.63;80512.41;5076304;28;20111;-71
2023/07/15 08:39:57;;;;;;;1.52;1.17;;;;;;;-146.27;57.35;80454.19;5069869;28;20023;-68
2023/07/15 08:42:24;;;;;;;1.67;1.13;;;;;;;-146.27;57.27;80444.16;5071214;28;20466;-72
2023/07/15 08:44:50;;;;;;;3.63;1.40;;;;;;;-146.27;56.15;80472.25;5079198;28;20039;-73
2023/07/15 08:47:24;;;;;;;3.05;1.50;;;;;;;-146.27;54.82;80546.56;5075944;28;20020;-73
2023/07/15 08:49:53;;;;;;;4.60;1.40;;;;;;;-146.27;53.80;80434.13;5067193;28;20070;-72
2023/07/15 08:52:23;;;;;;;4.97;1.30;;;;;;;-146.27;51.10;80375.88;5068683;28;20472;-72
2023/07/15 08:54:50;;;;;;;2.80;1.42;;;;;;;-146.27;51.51;80379.91;5075726;28;20025;-72
2023/07/15 08:57:20;;;;;;;1.83;1.20;;;;;;;-146.27;51.57;80456.19;5067084;28;20376;-73
2023/07/15 08:59:47;;;;;;;3.55;1.50;;;;;;;-146.27;52.50;80432.09;5070178;28;20056;-72
2023/07/15 09:02:13;;;;;;;1.60;0.98;;;;;;;-146.27;52.75;80468.25;5080557;28;20111;-69
2023/07/15 09:04:39;;;;;;;2.55;1.05;;;;;;;-146.27;53.75;80444.16;5061994;28;20108;-68
2023/07/15 09:07:05;;;;;;;4.47;1.00;;;;;;;-146.27;54.82;80434.13;5068723;28;20400;-69
2023/07/15 09:09:34;;;;;;;2.65;1.40;;;;;;;-146.27;55.43;80512.41;5066014;28;20028;-70
2023/07/15 09:12:05;;;;;;;6.22;1.33;;;;;;;-146.27;55.95;80436.13;5066562;28;20056;-67
2023/07/15 09:14:31;;;;;;;2.30;0.98;;;;;;;-146.27;55.42;80480.28;5067357;28;20377;-69
2023/07/15 09:16:59;;;;;;;2.60;1.10;;;;;;;-146.27;54.53;80434.13;5066544;28;20129;-72
2023/07/15 09:19:27;;;;;;;5.05;1.30;;;;;;;-146.27;53.92;80424.06;5064451;28;20016;-74
2023/07/15 09:22:13;;;;;;;2.30;1.15;;;;;;;-146.27;53.65;80460.22;5070931;28;20024;-73
2023/07/15 09:24:39;;;;;;;6.88;1.20;;;;;;;-146.27;54.12;80424.06;5070318;28;20057;-72
2023/07/15 09:27:06;;;;;;;3.33;1.20;;;;;;;-146.27;53.41;80343.75;5078671;28;20016;-73
2023/07/15 09:29:32;;;;;;;1.58;1.10;;;;;;;-146.27;52.90;80424.06;5065775;28;20471;-73
2023/07/15 09:31:58;;;;;;;3.65;1.30;;;;;;;-146.27;52.62;80361.84;5077034;28;20360;-73
2023/07/15 09:34:24;;;;;;;3.40;1.45;;;;;;;-146.27;52.96;80281.53;5074529;28;20134;-72
2023/07/15 09:36:50;;;;;;;5.95;1.20;;;;;;;-146.27;53.73;80253.41;5066573;28;20029;-73
2023/07/15 09:39:22;;;;;;;3.97;1.48;;;;;;;-146.27;53.99;80325.69;5067476;28;20028;-74
2023/07/15 09:42:07;;;;;;;3.42;1.27;;;;;;;-146.27;55.65;80251.41;5060414;28;20349;-72
2023/07/15 09:44:37;;;;;;;2.20;1.00;;;;;;;-146.27;55.84;80263.44;5070128;28;20067;-73
2023/07/15 09:47:04;;;;;;;3.03;1.00;;;;;;;-146.27;56.31;80263.44;5070364;28;20017;-73
2023/07/15 09:49:30;;;;;;;3.83;1.33;;;;;;;-146.27;56.93;80255.41;5068890;28;20031;-75
2023/07/15 09:51:59;;;;;;;4.53;1.55;;;;;;;-146.27;55.56;80295.56;5065760;28;20031;-74
2023/07/15 09:54:28;;;;;;;3.28;1.00;;;;;;;-146.27;55.65;80195.19;5059590;28;20696;-72
2023/07/15 09:57:07;;;;;;;4.20;1.15;;;;;;;-146.27;54.09;80281.53;5066605;28;20032;-67
2023/07/15 09:59:47;;;;;;;3.72;1.02;;;;;;;-146.27;54.22;80299.59;5060398;28;20039;-64
2023/07/15 10:02:34;;;;;;;5.05;1.30;;;;;;;-146.27;54.16;80275.50;5057936;28;20362;-71
2023/07/15 10:05:03;;;;;;;1.77;0.98;;;;;;;-146.27;54.35;80243.38;5068587;28;20483;-70
2023/07/15 10:07:29;;;;;;;2.92;1.27;;;;;;;-146.27;53.66;80171.09;5065981;28;20092;-69
2023/07/15 10:09:56;;;;;;;4.40;1.08;;;;;;;-146.27;54.29;80052.66;5060721;28;20033;-70
2023/07/15 10:12:22;;;;;;;1.98;1.10;;;;;;;-146.27;53.42;80143.00;5053774;28;20048;-71
2023/07/15 10:14:48;;;;;;;2.05;1.00;;;;;;;-146.27;53.43;80134.97;5060327;28;20013;-70
2023/07/15 10:17:15;;;;;;;4.10;1.08;;;;;;;-146.27;53.21;80151.03;5073721;28;20335;-70
2023/07/15 10:19:46;;;;;;;4.90;1.40;;;;;;;-146.27;53.78;80134.97;5071328;28;20027;-71
2023/07/15 10:22:13;;;;;;;4.47;1.45;;;;;;;-146.27;53.21;80022.53;5064204;28;20070;-69
2023/07/15 10:24:42;;;;;;;3.90;1.38;;;;;;;-146.27;53.88;79934.19;5068594;28;20111;-71
2023/07/15 10:27:11;;;;;;;5.15;1.40;;;;;;;-146.27;52.85;79771.59;5065436;28;20427;-68
2023/07/15 10:29:40;;;;;;;3.10;1.13;;;;;;;-146.27;51.95;79721.41;5069708;28;20029;-68
2023/07/15 10:32:14;;;;;;;5.93;1.17;;;;;;;-146.27;50.67;79793.66;5082720;28;20023;-69
2023/07/15 10:34:52;;;;;;;4.80;1.30;;;;;;;-146.27;49.76;79619.03;5071883;28;20024;-70
2023/07/15 10:37:20;;;;;;;4.05;1.40;;;;;;;-146.27;49.86;79552.78;5067898;28;20043;-69
2023/07/15 10:39:46;;;;;;;3.03;1.02;;;;;;;-146.27;49.32;79560.81;5071363;28;20028;-70
2023/07/15 10:42:14;;;;;;;1.90;1.08;;;;;;;-146.27;50.19;79693.28;5062133;28;20036;-69
2023/07/15 10:44:41;;;;;;;3.28;1.20;;;;;;;-146.27;50.25;79637.09;5065068;28;20030;-69
2023/07/15 10:47:08;;;;;;;2.75;1.25;;;;;;;-146.27;50.55;79613.00;5060285;28;20032;-71
2023/07/15 10:49:35;;;;;;;3.03;1.20;;;;;;;-146.27;50.42;79526.69;5069792;28;20484;-70
2023/07/15 10:52:03;;;;;;;2.60;1.30;;;;;;;-146.27;49.29;79470.47;5068924;28;20464;-71
2023/07/15 10:54:30;;;;;;;6.93;1.38;;;;;;;-146.27;50.93;79679.25;5068406;28;20015;-71
2023/07/15 10:56:56;;;;;;;3.00;1.30;;;;;;;-146.27;50.23;79709.34;5069335;28;20032;-70
2023/07/15 10:59:24;;;;;;;2.83;1.23;;;;;;;-146.27;51.19;79522.66;5070234;28;20025;-69
2023/07/15 11:01:50;;;;;;;5.43;1.30;;;;;;;-146.27;49.48;79434.34;5069800;28;20480;-70
2023/07/15 11:04:19;;;;;;;3.20;1.60;;;;;;;-146.27;48.77;79394.19;5069683;28;20062;-70
2023/07/15 11:06:45;;;;;;;3.28;1.67;;;;;;;-146.27;49.37;79215.53;5070213;28;20020;-71
2023/07/15 11:09:17;;;;;;;5.47;1.80;;;;;;;-146.27;48.39;79143.28;5070296;28;20116;-70
2023/07/15 11:11:43;;;;;;;7.20;1.90;;;;;;;-146.27;46.30;79081.06;5070031;28;20055;-72
2023/07/15 11:14:22;;;;;;;4.00;1.45;;;;;;;-146.27;46.30;79243.66;5070097;28;20099;-71